Time;durP1;ratioP1;P1;durP2;ratioP2;P2;SDS_P1;SDS_P2;PMS_P1;PMS_P2;Temp;Humidity;BMP_temperature;BMP_pressure;BME280_temperature;BME280_humidity;BME280_pressure;Samples;Min_cycle;Max_cycle;Signal;HPM_P1;HPM_P2
2021/12/06 00:02:14;;;;;;;100.03;49.57;;;;;;;3.40;78.65;97937.53;2228436;79;21369;-78
2021/12/06 00:05:15;;;;;;;99.97;49.60;;;;;;;3.43;78.62;97946.64;2213116;79;20998;-78
2021/12/06 00:08:15;;;;;;;94.17;48.93;;;;;;;3.44;78.75;97948.39;2234125;79;20965;-80
2021/12/06 00:11:16;;;;;;;99.40;49.20;;;;;;;3.48;78.69;97952.83;2242133;78;21010;-78
2021/12/06 00:14:17;;;;;;;117.73;52.40;;;;;;;3.49;78.58;97946.41;2225388;79;21460;-79
2021/12/06 00:17:19;;;;;;;109.70;53.93;;;;;;;3.48;78.53;97950.25;2216095;79;21341;-78
2021/12/06 00:20:19;;;;;;;103.47;51.77;;;;;;;3.49;78.54;97964.89;2220633;79;20989;-80
2021/12/06 00:23:20;;;;;;;100.87;50.43;;;;;;;3.49;78.49;97961.02;2233450;79;21048;-78
2021/12/06 00:26:21;;;;;;;100.33;50.10;;;;;;;3.50;78.65;97962.34;2221013;79;21044;-78
2021/12/06 00:29:21;;;;;;;99.07;50.53;;;;;;;3.53;78.60;97964.55;2229105;79;21000;-78
2021/12/06 00:32:22;;;;;;;103.33;50.67;;;;;;;3.52;78.57;97967.55;2241442;79;21429;-79
2021/12/06 00:35:24;;;;;;;103.77;52.13;;;;;;;3.52;78.54;97962.39;2249046;78;20985;-78
2021/12/06 00:38:24;;;;;;;97.07;49.93;;;;;;;3.51;78.49;97958.06;2243790;78;21088;-78
2021/12/06 00:41:25;;;;;;;95.77;48.63;;;;;;;3.52;78.51;97962.39;2251202;79;20981;-79
2021/12/06 00:44:25;;;;;;;94.13;49.37;;;;;;;3.53;78.66;97966.72;2213240;79;21017;-78
2021/12/06 00:47:26;;;;;;;98.50;49.23;;;;;;;3.55;78.61;97968.91;2222588;79;21008;-79
2021/12/06 00:50:26;;;;;;;101.30;48.97;;;;;;;3.55;78.59;97966.34;2221197;79;21369;-80
2021/12/06 00:53:27;;;;;;;95.80;48.97;;;;;;;3.57;78.57;97963.80;2240493;78;21036;-78
2021/12/06 00:56:27;;;;;;;99.53;50.27;;;;;;;3.55;78.56;97966.34;2242717;78;21017;-78
2021/12/06 00:59:28;;;;;;;102.37;50.80;;;;;;;3.56;78.67;97970.66;2218589;78;21341;-78
2021/12/06 01:02:28;;;;;;;103.83;52.20;;;;;;;3.57;78.64;97974.98;2194541;79;21005;-79
2021/12/06 01:05:29;;;;;;;100.70;52.73;;;;;;;3.62;78.64;97980.27;2201964;79;21013;-78
2021/12/06 01:08:29;;;;;;;93.90;51.10;;;;;;;3.64;78.60;97974.72;2241230;79;20996;-79
2021/12/06 01:11:30;;;;;;;105.37;53.67;;;;;;;3.59;78.26;97973.31;2204526;78;21045;-79
2021/12/06 01:14:30;;;;;;;103.10;50.67;;;;;;;3.54;78.28;97975.33;2244612;78;20966;-79
2021/12/06 01:17:31;;;;;;;101.13;52.83;;;;;;;3.55;78.55;97970.20;2242703;78;20993;-78
2021/12/06 01:20:33;;;;;;;90.10;48.10;;;;;;;3.56;78.62;97973.66;2249108;79;21016;-80
2021/12/06 01:23:48;;;;;;;89.90;45.53;;;;;;;3.56;78.80;97968.08;2250044;79;21401;-78
2021/12/06 01:39:26;;;;;;;98.90;51.83;;;;;;;3.60;78.76;97958.30;2244307;79;21389;-78
2021/12/06 01:42:24;;;;;;;88.63;46.13;;;;;;;3.60;78.74;97960.88;2209302;79;21009;-78
2021/12/06 01:45:25;;;;;;;89.87;46.07;;;;;;;3.60;78.84;97954.42;2250576;79;21009;-78
2021/12/06 01:48:25;;;;;;;84.87;45.50;;;;;;;3.62;78.92;97951.45;2232971;78;20962;-78
2021/12/06 01:51:26;;;;;;;93.43;48.33;;;;;;;3.61;78.66;97948.84;2245666;78;21374;-78
2021/12/06 01:54:26;;;;;;;94.57;48.17;;;;;;;3.60;78.72;97944.09;2194781;79;21060;-79
2021/12/06 01:57:27;;;;;;;88.90;45.67;;;;;;;3.60;78.71;97946.67;2200505;79;20969;-78
2021/12/06 02:00:27;;;;;;;88.23;45.73;;;;;;;3.59;78.84;97947.52;2222526;78;21095;-77
2021/12/06 02:03:28;;;;;;;88.83;44.97;;;;;;;3.60;78.83;97945.39;2226485;78;21000;-80
2021/12/06 02:06:28;;;;;;;81.87;43.90;;;;;;;3.60;78.73;97949.67;2249896;79;21365;-78
2021/12/06 02:09:29;;;;;;;87.77;46.17;;;;;;;3.59;78.75;97953.09;2226471;78;20989;-79
2021/12/06 02:12:31;;;;;;;83.47;44.97;;;;;;;3.57;78.89;97950.47;2194622;79;21070;-79
2021/12/06 02:15:42;;;;;;;81.20;42.50;;;;;;;3.59;78.99;97945.35;2208832;79;20998;-78
2021/12/06 02:21:41;;;;;;;86.13;45.67;;;;;;;3.62;79.02;97928.23;2187869;79;21037;-80
2021/12/06 02:24:42;;;;;;;95.53;50.10;;;;;;;3.65;78.89;97926.14;2215327;79;21064;-78
2021/12/06 02:27:42;;;;;;;100.37;49.77;;;;;;;3.64;78.86;97921.41;2247597;79;20962;-80
2021/12/06 02:30:43;;;;;;;99.60;50.97;;;;;;;3.67;78.79;97916.73;2244602;78;21342;-79
2021/12/06 02:33:45;;;;;;;115.77;54.17;;;;;;;3.64;78.67;97916.66;2241253;79;20989;-79
2021/12/06 02:36:46;;;;;;;114.80;53.50;;;;;;;3.66;79.00;97924.02;2213542;79;21424;-79
2021/12/06 02:39:47;;;;;;;132.20;60.57;;;;;;;3.64;78.83;97929.14;2201029;79;21326;-79
2021/12/06 02:42:48;;;;;;;124.17;59.30;;;;;;;3.59;78.93;97926.87;2200634;79;20989;-79
2021/12/06 02:45:48;;;;;;;128.03;55.40;;;;;;;3.56;78.98;97939.70;2241894;79;21376;-79
2021/12/06 02:48:49;;;;;;;116.17;55.53;;;;;;;3.49;79.12;97941.25;2217033;79;21021;-79
2021/12/06 02:51:53;;;;;;;113.97;51.47;;;;;;;3.48;79.32;97949.83;2251545;78;20970;-79
2021/12/06 02:54:56;;;;;;;109.20;53.53;;;;;;;3.48;79.48;97955.41;2203346;79;21009;-79
2021/12/06 02:57:57;;;;;;;113.87;53.53;;;;;;;3.47;79.40;97966.14;2224642;79;21045;-79
2021/12/06 03:00:57;;;;;;;88.73;44.40;;;;;;;3.46;79.37;97966.06;2210483;79;21008;-78
2021/12/06 03:03:57;;;;;;;82.70;39.27;;;;;;;3.45;79.35;97963.03;2200728;79;20969;-78
2021/12/06 03:06:59;;;;;;;86.93;39.37;;;;;;;3.48;79.37;97971.76;2245356;79;21021;-78
2021/12/06 03:09:59;;;;;;;83.13;40.17;;;;;;;3.42;79.33;97974.56;2206512;79;21377;-79
2021/12/06 03:13:00;;;;;;;84.23;38.13;;;;;;;3.40;79.40;97969.78;2236624;79;21016;-78
2021/12/06 03:16:01;;;;;;;91.47;40.10;;;;;;;3.39;79.46;97973.20;2200359;79;21401;-78
2021/12/06 03:19:04;;;;;;;86.90;39.83;;;;;;;3.38;79.53;97978.77;2248906;79;20970;-78
2021/12/06 03:22:04;;;;;;;87.33;38.67;;;;;;;3.39;79.52;97987.38;2249655;79;21012;-78
2021/12/06 03:25:05;;;;;;;86.00;41.10;;;;;;;3.42;79.66;97999.07;2249951;79;20989;-78
2021/12/06 03:28:05;;;;;;;82.27;39.00;;;;;;;3.43;79.81;97998.23;2248461;79;21018;-79
2021/12/06 03:31:06;;;;;;;80.57;38.70;;;;;;;3.48;79.69;98005.72;2246376;79;21060;-80
2021/12/06 03:34:07;;;;;;;87.93;40.67;;;;;;;3.49;79.56;98009.63;2199406;79;21044;-79
2021/12/06 03:37:08;;;;;;;81.27;37.10;;;;;;;3.49;79.52;98007.05;2201086;79;20985;-78
2021/12/06 03:40:08;;;;;;;66.20;31.00;;;;;;;3.53;79.57;98003.25;2241260;79;21005;-80
2021/12/06 03:43:09;;;;;;;61.60;31.97;;;;;;;3.56;79.44;98001.63;2247002;79;21350;-79
2021/12/06 03:46:09;;;;;;;65.23;30.73;;;;;;;3.55;79.27;98002.88;2239363;78;20997;-79
2021/12/06 03:49:10;;;;;;;65.47;30.60;;;;;;;3.50;79.14;97998.89;2221312;78;20986;-81
2021/12/06 03:52:10;;;;;;;59.07;29.53;;;;;;;3.40;79.21;97995.58;2249112;78;20981;-80
2021/12/06 03:55:13;;;;;;;67.53;31.37;;;;;;;3.36;79.42;98004.07;2235254;79;21014;-79
2021/12/06 03:58:13;;;;;;;58.93;28.73;;;;;;;3.37;79.49;98000.66;2228314;79;21041;-79
2021/12/06 04:01:13;;;;;;;69.07;32.73;;;;;;;3.33;79.52;97997.54;2210511;79;21329;-80
2021/12/06 04:04:14;;;;;;;68.77;32.00;;;;;;;3.30;79.50;98002.62;2241455;78;20986;-78
2021/12/06 04:07:14;;;;;;;68.47;33.73;;;;;;;3.26;79.62;97992.63;2246621;79;20986;-79
2021/12/06 04:10:15;;;;;;;58.90;30.00;;;;;;;3.26;79.73;97999.50;2213429;79;20982;-79
2021/12/06 04:13:16;;;;;;;69.90;33.23;;;;;;;3.24;79.76;97998.58;2207226;79;21000;-78
2021/12/06 04:16:16;;;;;;;66.60;32.20;;;;;;;3.19;79.81;98001.04;2240083;79;21052;-79
2021/12/06 04:19:17;;;;;;;64.93;31.50;;;;;;;3.09;79.79;98001.62;2204339;79;21105;-83
2021/12/06 04:22:17;;;;;;;66.27;32.30;;;;;;;3.01;80.05;97994.96;2234726;78;21006;-79
2021/12/06 04:25:19;;;;;;;72.43;33.97;;;;;;;2.97;80.19;97986.69;2228756;78;20997;-79
2021/12/06 04:28:20;;;;;;;70.87;32.40;;;;;;;2.96;80.35;97989.22;2248233;79;21005;-80
2021/12/06 04:31:20;;;;;;;76.47;32.47;;;;;;;2.91;80.45;97988.22;2248549;79;21057;-80
2021/12/06 04:34:21;;;;;;;77.57;29.47;;;;;;;2.90;80.57;97998.95;2218683;79;20993;-79
2021/12/06 04:37:21;;;;;;;81.60;32.13;;;;;;;2.83;80.87;97999.60;2232338;79;21018;-80
2021/12/06 04:40:22;;;;;;;79.63;29.20;;;;;;;2.73;80.95;97992.44;2217020;79;21366;-80
2021/12/06 04:43:22;;;;;;;111.17;31.60;;;;;;;2.66;81.28;98004.69;2242980;78;21035;-78
2021/12/06 04:46:23;;;;;;;77.10;30.30;;;;;;;2.61;81.50;98001.97;2241847;78;21084;-81
2021/12/06 04:49:26;;;;;;;94.97;29.70;;;;;;;2.57;81.64;98003.97;2250079;79;20989;-80
2021/12/06 04:52:26;;;;;;;80.13;32.17;;;;;;;2.54;81.70;98012.48;2239858;79;21496;-79
2021/12/06 04:55:26;;;;;;;87.07;32.77;;;;;;;2.48;82.16;98011.01;2216011;79;20950;-80
2021/12/06 04:58:27;;;;;;;117.83;36.43;;;;;;;2.44;82.25;98010.88;2240032;79;20981;-79
2021/12/06 05:01:28;;;;;;;112.50;34.17;;;;;;;2.43;82.49;98024.16;2244101;79;21409;-78
2021/12/06 05:04:28;;;;;;;125.00;33.60;;;;;;;3.05;84.57;98030.73;2238179;79;21031;-80
2021/12/06 05:07:29;;;;;;;109.57;31.27;;;;;;;3.02;82.04;98039.66;2199159;79;20973;-79
2021/12/06 05:10:29;;;;;;;103.50;33.03;;;;;;;2.84;81.71;98052.90;2208701;79;21057;-81
2021/12/06 05:13:30;;;;;;;120.43;33.83;;;;;;;2.73;81.86;98053.88;2216340;79;21468;-80
2021/12/06 05:16:30;;;;;;;118.83;33.40;;;;;;;2.68;81.91;98059.30;2224116;79;21729;-80
2021/12/06 05:19:31;;;;;;;101.80;31.00;;;;;;;2.63;82.03;98059.58;2241696;79;20957;-78
2021/12/06 05:22:31;;;;;;;98.73;33.27;;;;;;;4.62;97.02;98055.44;2248551;78;20997;-79
2021/12/06 05:25:32;;;;;;;114.00;35.77;;;;;;;5.50;81.09;98063.79;2216652;79;21048;-81
2021/12/06 05:28:39;;;;;;;90.73;32.17;;;;;;;4.87;78.64;98064.19;2202340;79;20974;-81
2021/12/06 05:31:39;;;;;;;64.63;28.67;;;;;;;4.25;78.10;98057.14;2245563;79;21075;-80
2021/12/06 05:34:39;;;;;;;69.80;29.97;;;;;;;5.01;91.98;98074.41;2217565;79;21013;-84
2021/12/06 05:37:39;;;;;;;92.70;35.87;;;;;;;8.85;85.21;98076.07;2240686;79;21425;-81
2021/12/06 05:40:40;;;;;;;88.73;37.07;;;;;;;8.39;70.29;98071.37;2215849;79;20985;-80
2021/12/06 05:43:41;;;;;;;115.17;36.00;;;;;;;6.31;69.73;98071.34;2228204;79;20966;-81
2021/12/06 05:46:41;;;;;;;90.00;36.27;;;;;;;4.93;72.23;98084.14;2226775;79;21005;-80
2021/12/06 05:49:42;;;;;;;95.60;35.67;;;;;;;4.59;76.82;98090.27;2214457;79;20981;-82
2021/12/06 05:52:42;;;;;;;66.87;33.47;;;;;;;5.30;76.26;98092.28;2208437;79;21399;-80
2021/12/06 05:55:43;;;;;;;69.03;34.07;;;;;;;4.83;74.49;98092.11;2225781;79;21088;-80
2021/12/06 05:58:43;;;;;;;71.10;35.97;;;;;;;4.68;75.43;98096.94;2224748;79;21000;-80
2021/12/06 06:01:47;;;;;;;76.10;33.87;;;;;;;4.15;75.14;98097.38;2246142;79;20970;-81
2021/12/06 06:04:46;;;;;;;68.53;34.53;;;;;;;3.64;75.96;98098.60;2230556;79;20970;-81
2021/12/06 06:07:56;;;;;;;74.60;35.87;;;;;;;3.24;76.86;98094.02;2226762;79;21005;-80
2021/12/06 06:10:56;;;;;;;81.67;35.10;;;;;;;2.90;77.98;98096.02;2224773;79;20989;-80
2021/12/06 06:13:57;;;;;;;72.63;33.73;;;;;;;2.69;78.75;98093.27;2193470;79;20981;-80
2021/12/06 06:17:07;;;;;;;69.07;34.53;;;;;;;2.54;79.15;98087.61;2207442;79;21032;-81
2021/12/06 06:20:00;;;;;;;75.20;36.70;;;;;;;2.41;79.54;98097.06;2214966;79;21033;-81
2021/12/06 06:23:00;;;;;;;85.00;38.17;;;;;;;2.27;80.30;98103.47;2217511;79;20974;-82
2021/12/06 06:26:01;;;;;;;81.57;39.27;;;;;;;2.17;80.71;98108.73;2249641;78;21470;-81
2021/12/06 06:29:01;;;;;;;80.67;36.43;;;;;;;2.04;80.90;98111.32;2238931;78;20934;-81
2021/12/06 06:32:02;;;;;;;79.77;37.00;;;;;;;1.96;81.35;98110.60;2248997;79;21024;-83
2021/12/06 06:35:02;;;;;;;73.43;36.50;;;;;;;1.91;81.61;98116.88;2234498;79;21032;-81
2021/12/06 06:38:03;;;;;;;69.70;36.00;;;;;;;1.87;81.70;98124.91;2236279;79;20953;-81
2021/12/06 06:41:03;;;;;;;71.73;35.20;;;;;;;1.83;82.11;98132.47;2225553;79;21016;-80
2021/12/06 06:44:04;;;;;;;67.47;35.47;;;;;;;1.76;82.17;98136.94;2230923;79;21377;-80
2021/12/06 06:47:04;;;;;;;65.03;34.67;;;;;;;1.71;82.90;98144.88;2207479;79;21052;-81
2021/12/06 06:50:05;;;;;;;70.30;35.30;;;;;;;1.63;82.41;98154.90;2237895;79;21341;-82
2021/12/06 06:53:05;;;;;;;66.20;36.07;;;;;;;1.62;82.55;98151.86;2231153;79;20937;-80
2021/12/06 06:56:06;;;;;;;66.70;35.13;;;;;;;1.58;82.61;98148.30;2236971;79;20946;-81
2021/12/06 06:59:06;;;;;;;65.83;36.53;;;;;;;1.58;82.96;98141.87;2221549;79;20981;-81
2021/12/06 07:02:08;;;;;;;64.67;35.30;;;;;;;1.54;83.24;98147.73;2216646;79;21029;-81
2021/12/06 07:05:09;;;;;;;61.60;35.30;;;;;;;1.54;83.38;98145.56;2224099;79;20995;-83
2021/12/06 07:08:09;;;;;;;63.40;33.63;;;;;;;1.51;83.11;98143.76;2226398;79;21393;-82
2021/12/06 07:11:10;;;;;;;58.77;33.57;;;;;;;1.51;83.13;98142.47;2241459;79;20953;-81
2021/12/06 07:14:10;;;;;;;64.87;34.60;;;;;;;1.53;83.43;98140.83;2225874;79;21381;-81
2021/12/06 07:17:11;;;;;;;65.07;35.40;;;;;;;1.53;83.37;98137.38;2218830;78;21013;-80
2021/12/06 07:20:11;;;;;;;68.93;36.57;;;;;;;1.52;83.25;98141.66;2219309;79;20961;-80
2021/12/06 07:23:12;;;;;;;66.97;35.47;;;;;;;1.52;83.27;98153.23;2193288;79;20968;-82
2021/12/06 07:26:12;;;;;;;63.73;33.77;;;;;;;1.53;83.16;98156.67;2235027;79;20972;-80
2021/12/06 07:29:13;;;;;;;67.07;34.93;;;;;;;1.55;83.21;98161.47;2233452;79;21023;-77
2021/12/06 07:32:13;;;;;;;63.53;35.47;;;;;;;1.54;83.11;98164.45;2238630;78;21041;-82
2021/12/06 07:35:15;;;;;;;72.37;36.37;;;;;;;1.55;83.20;98174.33;2226866;79;20929;-83
2021/12/06 07:38:16;;;;;;;65.27;35.27;;;;;;;1.56;83.29;98169.64;2218283;78;21029;-85
2021/12/06 07:41:16;;;;;;;64.10;33.77;;;;;;;1.53;83.22;98172.98;2230915;79;21044;-82
2021/12/06 07:44:17;;;;;;;66.30;35.20;;;;;;;1.54;83.38;98179.00;2216311;79;21337;-81
2021/12/06 07:47:17;;;;;;;66.07;34.03;;;;;;;1.58;83.16;98174.44;2204604;79;20957;-81
2021/12/06 07:50:18;;;;;;;64.73;33.87;;;;;;;1.61;83.20;98171.98;2216212;79;20969;-82
2021/12/06 07:53:18;;;;;;;67.90;34.40;;;;;;;1.64;83.08;98172.08;2193773;79;21032;-83
2021/12/06 07:56:19;;;;;;;64.53;34.07;;;;;;;1.68;83.33;98185.52;2225540;79;21747;-82
2021/12/06 07:59:20;;;;;;;62.90;34.13;;;;;;;1.68;83.03;98185.52;2230660;79;21020;-81
2021/12/06 08:02:20;;;;;;;67.70;33.83;;;;;;;1.74;83.08;98182.33;2240146;79;21020;-81
2021/12/06 08:05:30;;;;;;;73.17;35.37;;;;;;;1.76;83.10;98181.97;2216203;79;21028;-81
2021/12/06 08:08:30;;;;;;;66.50;35.63;;;;;;;1.76;82.91;98188.41;2217777;79;21069;-80
2021/12/06 08:11:31;;;;;;;70.17;36.90;;;;;;;1.78;82.85;98195.36;2229862;79;20957;-80
2021/12/06 08:14:31;;;;;;;70.50;35.87;;;;;;;1.84;82.77;98201.13;2219264;79;21024;-83
2021/12/06 08:17:32;;;;;;;70.57;36.63;;;;;;;1.88;82.88;98198.72;2247060;79;21357;-83
2021/12/06 08:20:32;;;;;;;72.60;35.80;;;;;;;1.90;82.67;98202.64;2223835;79;21013;-82
2021/12/06 08:23:33;;;;;;;68.30;35.13;;;;;;;1.89;82.69;98203.05;2251317;79;21008;-81
2021/12/06 08:26:33;;;;;;;68.97;36.60;;;;;;;1.94;82.67;98206.19;2248081;78;20997;-82
2021/12/06 08:29:34;;;;;;;71.27;35.70;;;;;;;1.89;82.73;98206.91;2248326;78;20973;-81
2021/12/06 08:32:34;;;;;;;71.53;37.47;;;;;;;1.85;82.92;98203.76;2230813;78;20989;-82
2021/12/06 08:35:35;;;;;;;76.13;38.93;;;;;;;1.81;83.37;98200.61;2241507;79;21028;-81
2021/12/06 08:38:36;;;;;;;83.63;42.53;;;;;;;1.76;83.33;98200.86;2202970;79;21034;-82
2021/12/06 08:41:36;;;;;;;81.03;39.80;;;;;;;1.75;83.74;98201.68;2211413;78;20962;-81
2021/12/06 08:44:37;;;;;;;85.10;40.83;;;;;;;1.75;83.61;98205.95;2251608;79;20985;-82
2021/12/06 08:47:37;;;;;;;75.10;38.03;;;;;;;1.70;83.74;98213.47;2197782;79;21056;-83
2021/12/06 08:50:38;;;;;;;82.37;37.13;;;;;;;1.69;83.86;98214.29;2206103;79;20978;-81
2021/12/06 08:53:38;;;;;;;84.00;39.33;;;;;;;1.69;84.08;98220.72;2219003;79;20994;-85
2021/12/06 08:56:39;;;;;;;74.57;37.33;;;;;;;1.63;84.33;98221.78;2239014;78;20988;-83
2021/12/06 08:59:39;;;;;;;91.40;39.10;;;;;;;1.62;84.53;98223.89;2250901;78;21015;-82
2021/12/06 09:02:40;;;;;;;76.83;36.97;;;;;;;1.65;84.48;98221.84;2247758;79;20976;-82
2021/12/06 09:05:43;;;;;;;83.57;38.63;;;;;;;1.65;84.57;98215.00;2229037;79;21429;-81
2021/12/06 09:08:42;;;;;;;81.30;36.90;;;;;;;1.67;84.37;98214.64;2217843;79;20985;-81
2021/12/06 09:11:43;;;;;;;87.03;38.60;;;;;;;1.69;84.58;98215.58;2222161;79;21669;-81
2021/12/06 09:14:43;;;;;;;98.90;41.77;;;;;;;1.62;84.34;98220.03;2193502;79;21365;-82
2021/12/06 09:17:44;;;;;;;94.23;41.43;;;;;;;1.58;85.10;98219.45;2243984;79;21009;-82
2021/12/06 09:20:45;;;;;;;96.40;43.13;;;;;;;1.56;85.19;98232.26;2244747;78;21008;-82
2021/12/06 09:23:45;;;;;;;98.97;43.10;;;;;;;1.54;85.25;98232.61;2216616;79;21008;-82
2021/12/06 09:26:46;;;;;;;92.87;41.70;;;;;;;1.56;85.15;98240.38;2240794;79;20942;-81
2021/12/06 09:29:46;;;;;;;82.83;38.93;;;;;;;1.58;85.20;98247.34;2238121;79;21009;-84
2021/12/06 09:32:47;;;;;;;91.27;38.40;;;;;;;1.55;85.18;98241.20;2227618;78;20969;-82
2021/12/06 09:35:47;;;;;;;90.80;41.70;;;;;;;1.56;85.10;98244.24;2241629;78;21455;-82
2021/12/06 09:38:48;;;;;;;94.13;41.37;;;;;;;1.59;85.28;98245.23;2229434;79;20977;-82
2021/12/06 09:41:49;;;;;;;100.63;42.30;;;;;;;1.63;85.08;98235.06;2230159;79;21017;-83
2021/12/06 09:44:56;;;;;;;94.00;42.23;;;;;;;1.67;85.13;98236.52;2214259;79;21000;-82
2021/12/06 09:47:57;;;;;;;93.15;41.42;;;;;;;1.71;85.21;98229.38;2222943;79;21396;-82
2021/12/06 09:50:57;;;;;;;90.63;44.07;;;;;;;1.68;84.84;98229.27;2240557;78;21048;-82
2021/12/06 09:53:58;;;;;;;80.70;39.37;;;;;;;1.68;84.93;98216.39;2245180;79;20954;-83
2021/12/06 09:56:58;;;;;;;85.17;38.60;;;;;;;1.72;84.74;98222.12;2211278;79;21392;-83
2021/12/06 09:59:59;;;;;;;80.73;38.10;;;;;;;1.70;85.00;98223.77;2225656;79;21028;-83
2021/12/06 10:02:59;;;;;;;82.13;36.33;;;;;;;1.65;84.78;98225.70;2226944;79;21004;-85
2021/12/06 10:06:04;;;;;;;81.80;36.13;;;;;;;1.63;84.85;98226.05;2223685;79;21044;-82
2021/12/06 10:09:05;;;;;;;76.83;36.50;;;;;;;1.60;84.92;98227.69;2224583;79;20993;-81
2021/12/06 10:12:05;;;;;;;78.60;38.43;;;;;;;1.53;85.35;98230.86;2248396;79;20977;-81
2021/12/06 10:15:06;;;;;;;71.50;35.67;;;;;;;1.48;85.48;98228.52;2247796;78;21032;-81
2021/12/06 10:18:07;;;;;;;72.13;34.70;;;;;;;1.48;85.44;98230.22;2250584;78;21052;-81
2021/12/06 10:21:08;;;;;;;76.97;38.20;;;;;;;1.44;85.58;98225.78;2203957;79;21092;-81
2021/12/06 10:24:08;;;;;;;74.37;34.93;;;;;;;1.48;85.47;98226.36;2237564;79;21430;-80
2021/12/06 10:27:09;;;;;;;68.83;34.57;;;;;;;1.52;85.69;98233.37;2227188;79;21060;-80
2021/12/06 10:30:09;;;;;;;63.57;32.73;;;;;;;1.50;85.24;98231.16;2238802;79;20989;-81
2021/12/06 10:33:10;;;;;;;67.47;35.37;;;;;;;1.49;85.35;98234.13;2234338;79;21013;-81
2021/12/06 10:36:10;;;;;;;60.83;33.00;;;;;;;1.53;85.30;98238.58;2210521;79;21321;-81
2021/12/06 10:39:11;;;;;;;69.90;35.43;;;;;;;1.58;85.34;98231.91;2230789;79;21444;-80
2021/12/06 10:42:11;;;;;;;63.20;33.30;;;;;;;1.61;85.06;98233.72;2221472;79;21068;-74
2021/12/06 10:45:12;;;;;;;61.77;33.17;;;;;;;1.65;84.94;98234.30;2200405;79;20981;-81
2021/12/06 10:48:12;;;;;;;65.20;32.37;;;;;;;1.66;84.91;98238.62;2232421;79;20969;-80
2021/12/06 10:51:13;;;;;;;63.63;32.00;;;;;;;1.66;84.73;98236.05;2198585;79;21017;-81
2021/12/06 10:54:19;;;;;;;65.17;33.70;;;;;;;1.70;84.69;98232.77;2215816;79;21003;-81
2021/12/06 10:57:16;;;;;;;58.63;32.73;;;;;;;1.73;84.64;98236.73;2230696;79;21081;-81
2021/12/06 11:00:19;;;;;;;58.77;30.53;;;;;;;1.77;84.45;98233.89;2249517;79;21005;-81
2021/12/06 11:03:20;;;;;;;56.90;29.73;;;;;;;1.77;84.38;98237.76;2238653;78;20950;-83
2021/12/06 11:06:21;;;;;;;63.67;33.97;;;;;;;1.78;84.29;98235.23;2234666;79;21593;-82
2021/12/06 11:09:22;;;;;;;59.33;32.47;;;;;;;1.76;84.30;98235.59;2215079;79;21053;-81
2021/12/06 11:12:22;;;;;;;58.17;32.20;;;;;;;1.76;84.31;98236.88;2212721;79;21057;-79
2021/12/06 11:15:23;;;;;;;59.30;30.33;;;;;;;1.73;84.29;98231.59;2247060;79;20997;-81
2021/12/06 11:18:23;;;;;;;55.37;31.07;;;;;;;1.75;84.23;98235.54;2207425;79;21077;-82
2021/12/06 11:21:24;;;;;;;59.87;32.27;;;;;;;1.73;84.26;98237.14;2205645;79;21009;-81
2021/12/06 11:24:25;;;;;;;53.87;30.93;;;;;;;1.70;84.24;98244.34;2217498;79;21013;-81
2021/12/06 11:27:25;;;;;;;51.40;28.17;;;;;;;1.72;84.28;98246.56;2246702;78;20975;-82
2021/12/06 11:30:27;;;;;;;55.53;29.50;;;;;;;1.73;84.11;98252.17;2204107;79;21001;-81
2021/12/06 11:33:27;;;;;;;55.67;30.13;;;;;;;1.74;84.04;98248.81;2218448;79;21458;-82
2021/12/06 11:36:30;;;;;;;51.73;28.13;;;;;;;1.77;83.96;98250.63;2240525;79;21009;-82
2021/12/06 11:39:30;;;;;;;51.97;28.83;;;;;;;1.78;83.87;98249.80;2249277;79;21080;-81
2021/12/06 11:42:31;;;;;;;50.87;27.63;;;;;;;1.76;83.89;98245.02;2223381;79;20958;-80
2021/12/06 11:45:31;;;;;;;50.03;27.53;;;;;;;1.73;83.81;98247.44;2247825;79;20962;-80
2021/12/06 11:48:32;;;;;;;50.87;27.10;;;;;;;1.70;83.90;98249.90;2212210;79;21027;-81
2021/12/06 11:51:33;;;;;;;58.43;32.00;;;;;;;1.64;83.96;98248.39;2196817;79;21711;-83
2021/12/06 11:54:34;;;;;;;53.27;28.43;;;;;;;1.68;84.13;98250.25;2248203;79;20950;-81
2021/12/06 11:57:34;;;;;;;51.93;30.23;;;;;;;1.72;84.06;98254.69;2251210;79;21068;-81
2021/12/06 12:00:35;;;;;;;54.57;30.83;;;;;;;1.70;84.03;98257.20;2230357;79;21334;-81
2021/12/06 12:03:35;;;;;;;52.03;29.60;;;;;;;1.69;84.12;98258.03;2230562;78;20969;-82
2021/12/06 12:06:36;;;;;;;49.67;28.53;;;;;;;1.67;84.07;98254.52;2232916;79;20958;-81
2021/12/06 12:09:37;;;;;;;46.17;25.87;;;;;;;1.65;84.19;98256.16;2193198;79;21024;-81
2021/12/06 12:12:38;;;;;;;46.57;26.67;;;;;;;1.62;84.08;98256.45;2234711;79;20982;-81
2021/12/06 12:15:39;;;;;;;42.00;24.87;;;;;;;1.59;84.10;98258.50;2244180;79;21077;-80
2021/12/06 12:18:40;;;;;;;50.47;26.40;;;;;;;1.58;84.05;98260.61;2237096;79;21472;-79
2021/12/06 12:21:40;;;;;;;46.20;26.03;;;;;;;1.58;84.24;98269.61;2198475;79;21061;-80
2021/12/06 12:24:44;;;;;;;41.93;24.43;;;;;;;1.57;84.21;98275.58;2232603;79;21055;-81
2021/12/06 12:27:53;;;;;;;42.63;24.17;;;;;;;1.54;84.18;98273.77;2231361;79;21092;-81
2021/12/06 12:33:48;;;;;;;39.60;23.37;;;;;;;1.48;84.22;98259.80;2192789;79;21001;-81
2021/12/06 12:36:49;;;;;;;38.73;23.90;;;;;;;1.44;84.41;98260.50;2239758;78;20965;-81
2021/12/06 12:39:49;;;;;;;53.60;30.67;;;;;;;1.39;84.45;98260.33;2233848;79;21385;-80
2021/12/06 12:42:49;;;;;;;65.70;34.73;;;;;;;1.38;84.42;98266.28;2221672;78;21029;-81
2021/12/06 12:45:50;;;;;;;39.80;23.83;;;;;;;1.30;84.38;98258.69;2250804;79;20993;-80
2021/12/06 12:48:51;;;;;;;43.13;25.43;;;;;;;1.23;84.48;98261.84;2232458;79;20997;-81
2021/12/06 12:51:51;;;;;;;41.37;24.97;;;;;;;1.15;85.06;98267.97;2240893;79;21378;-82
2021/12/06 12:54:57;;;;;;;40.43;24.50;;;;;;;1.12;84.92;98263.11;2246615;79;21413;-83
2021/12/06 12:57:54;;;;;;;38.20;24.37;;;;;;;1.12;85.06;98261.42;2230734;79;20961;-81
2021/12/06 13:00:59;;;;;;;34.90;23.43;;;;;;;1.11;85.02;98269.95;2217865;78;21432;-80
2021/12/06 13:03:57;;;;;;;35.13;20.87;;;;;;;1.08;85.43;98276.25;2250887;79;21000;-80
2021/12/06 13:06:58;;;;;;;37.63;21.17;;;;;;;1.08;85.40;98277.54;2225455;79;21452;-80
2021/12/06 13:09:58;;;;;;;29.43;17.90;;;;;;;1.09;85.26;98274.56;2193486;79;20998;-80
2021/12/06 13:12:59;;;;;;;27.73;18.20;;;;;;;1.08;85.24;98283.97;2232256;79;21032;-82
2021/12/06 13:22:10;;;;;;;36.83;22.37;;;;;;;1.04;85.19;98275.66;2201510;79;21013;-81
2021/12/06 13:25:10;;;;;;;73.70;36.10;;;;;;;1.05;85.28;98282.97;2248775;79;21521;-80
2021/12/06 13:28:13;;;;;;;32.80;19.90;;;;;;;1.04;85.32;98285.95;2236658;79;20969;-80
2021/12/06 13:31:13;;;;;;;35.30;24.00;;;;;;;1.03;85.23;98287.17;2210853;79;20985;-81
2021/12/06 13:34:13;;;;;;;32.47;21.07;;;;;;;1.05;85.37;98290.27;2204100;79;20981;-83
2021/12/06 13:37:14;;;;;;;37.93;25.23;;;;;;;1.06;85.47;98288.17;2231909;79;21044;-81
2021/12/06 13:40:14;;;;;;;29.00;18.00;;;;;;;1.07;85.33;98300.61;2247385;79;21365;-80
2021/12/06 13:43:15;;;;;;;36.67;21.63;;;;;;;1.04;85.40;98301.37;2250462;78;21365;-81
2021/12/06 13:46:17;;;;;;;29.50;19.07;;;;;;;1.02;85.37;98303.00;2220108;78;21009;-81
2021/12/06 13:49:17;;;;;;;34.90;23.67;;;;;;;0.98;85.46;98302.41;2228598;79;21004;-82
2021/12/06 13:52:20;;;;;;;27.97;19.23;;;;;;;0.95;85.58;98309.98;2188330;79;21021;-80
2021/12/06 13:55:21;;;;;;;29.97;19.40;;;;;;;0.93;85.57;98309.93;2242283;79;21005;-82
2021/12/06 13:58:23;;;;;;;32.30;20.30;;;;;;;0.94;85.63;98314.25;2208509;79;21035;-82
2021/12/06 14:01:24;;;;;;;32.47;18.90;;;;;;;0.98;85.79;98315.66;2239855;79;21027;-83
2021/12/06 14:04:24;;;;;;;53.20;27.87;;;;;;;0.98;85.62;98316.95;2239920;79;21397;-81
2021/12/06 14:07:25;;;;;;;46.23;23.23;;;;;;;1.01;85.60;98319.23;2237174;79;20973;-80
2021/12/06 14:10:25;;;;;;;48.33;24.87;;;;;;;1.04;85.61;98330.92;2235806;78;21024;-83
2021/12/06 14:13:26;;;;;;;37.17;21.20;;;;;;;1.04;85.53;98331.33;2245482;78;21019;-82
2021/12/06 14:16:32;;;;;;;38.17;20.43;;;;;;;1.03;85.56;98336.00;2234812;79;20998;-82
2021/12/06 14:19:29;;;;;;;50.10;24.77;;;;;;;0.95;85.49;98339.54;2200738;79;21413;-81
2021/12/06 14:22:31;;;;;;;38.97;23.10;;;;;;;0.94;85.54;98338.66;2232830;79;20934;-80
2021/12/06 14:25:32;;;;;;;51.40;24.67;;;;;;;0.95;85.62;98333.12;2229349;79;21068;-81